createdAt,value
2019-01-23T00:12:14.960Z,0.62
2019-01-23T00:27:48.817Z,0.42
2019-01-23T00:43:21.362Z,0.53
2019-01-23T00:58:54.992Z,0.54
2019-01-23T01:14:28.053Z,0.30
2019-01-23T01:30:01.093Z,0.07
2019-01-23T01:45:33.769Z,0.06
2019-01-23T02:01:06.390Z,0.10
2019-01-23T02:16:39.654Z,0.15
2019-01-23T02:32:12.251Z,0.29
2019-01-23T02:47:45.392Z,0.55
2019-01-23T03:03:18.413Z,0.40
2019-01-23T03:18:51.470Z,0.44
2019-01-23T03:34:24.853Z,0.48
2019-01-23T03:49:57.898Z,0.38
2019-01-23T04:05:32.047Z,0.34
2019-01-23T04:21:05.109Z,0.17
2019-01-23T04:36:38.757Z,0.08
2019-01-23T04:52:13.545Z,0.24
2019-01-23T05:07:46.790Z,0.22
2019-01-23T05:23:19.802Z,-0.12
2019-01-23T05:38:52.745Z,-0.45
2019-01-23T05:54:25.896Z,-0.44
2019-01-23T06:09:59.997Z,-0.29
2019-01-23T06:25:32.773Z,-0.10
2019-01-23T06:41:05.902Z,0.17
2019-01-23T06:56:09.338Z,0.22
2019-01-23T07:11:12.985Z,0.43
2019-01-23T07:26:16.885Z,0.63
2019-01-23T07:41:19.468Z,0.73
2019-01-23T07:56:23.533Z,1.52
2019-01-23T08:11:26.092Z,1.69
2019-01-23T08:26:28.682Z,4.01
2019-01-23T08:41:31.291Z,9.47
2019-01-23T08:56:34.036Z,9.96
2019-01-23T09:11:36.733Z,9.32
2019-01-23T09:26:40.121Z,10.25
2019-01-23T09:41:48.560Z,10.89
2019-01-23T09:56:51.137Z,11.55
2019-01-23T10:11:55.782Z,10.67
2019-01-23T10:26:58.356Z,10.47
2019-01-23T10:42:04.076Z,12.15
2019-01-23T10:57:07.598Z,10.26
2019-01-23T11:12:10.180Z,8.94
2019-01-23T11:27:12.746Z,7.24
2019-01-23T11:42:16.638Z,7.23
2019-01-23T11:57:20.040Z,7.87
2019-01-23T12:12:22.648Z,7.61
2019-01-23T12:27:26.784Z,7.45
2019-01-23T12:42:29.553Z,7.39
2019-01-23T12:57:32.157Z,6.91
2019-01-23T13:12:36.039Z,6.46
2019-01-23T13:27:42.074Z,6.05
2019-01-23T13:42:44.673Z,5.55
2019-01-23T13:57:48.953Z,5.45
2019-01-23T14:12:54.281Z,5.18
2019-01-23T14:27:57.022Z,5.03
2019-01-23T14:42:59.617Z,4.77
2019-01-23T14:58:05.938Z,4.30
2019-01-23T15:13:08.543Z,3.92
2019-01-23T15:28:11.131Z,3.69
2019-01-23T15:43:14.064Z,3.72
2019-01-23T15:58:17.487Z,3.59
2019-01-23T16:13:20.055Z,3.16
2019-01-23T16:28:22.619Z,2.87
2019-01-23T16:43:25.199Z,2.78
2019-01-23T16:58:27.766Z,2.72
2019-01-23T17:13:31.190Z,2.42
2019-01-23T17:28:35.567Z,2.37
2019-01-23T17:43:38.730Z,2.21
2019-01-23T17:58:41.314Z,2.20
2019-01-23T18:13:43.882Z,2.04
2019-01-23T18:28:47.316Z,1.95
2019-01-23T18:44:12.474Z,2.04
2019-01-23T18:59:16.165Z,2.13
2019-01-23T19:14:24.370Z,2.58
2019-01-23T19:29:25.755Z,2.60
2019-01-23T19:44:28.407Z,2.77
2019-01-23T19:59:32.101Z,3.20
2019-01-23T20:14:34.760Z,3.75
2019-01-23T20:29:37.354Z,3.80
2019-01-23T20:44:39.950Z,3.48
2019-01-23T20:59:43.448Z,3.36
2019-01-23T21:14:46.241Z,3.48
2019-01-23T21:29:48.807Z,3.07
2019-01-23T21:44:51.397Z,3.25
2019-01-23T21:59:53.993Z,3.28
2019-01-23T22:14:56.548Z,3.39
2019-01-23T22:29:59.111Z,3.48
2019-01-23T22:45:01.662Z,3.40
2019-01-23T23:00:22.067Z,3.34
2019-01-23T23:15:25.072Z,3.06
2019-01-23T23:30:27.964Z,3.79
2019-01-23T23:45:31.284Z,4.14
